sensor_id;sensor_type;location;lat;lon;timestamp;P1;durP1;ratioP1;P2;durP2;ratioP2
2784;SDS011;57944;48.722;9.316;2023-09-12T00:02:23;22.20;;;15.87;;
2784;SDS011;57944;48.722;9.316;2023-09-12T00:04:55;26.33;;;18.07;;
2784;SDS011;57944;48.722;9.316;2023-09-12T00:07:26;19.50;;;17.00;;
2784;SDS011;57944;48.722;9.316;2023-09-12T00:09:57;23.20;;;16.50;;
2784;SDS011;57944;48.722;9.316;2023-09-12T00:12:28;27.87;;;17.77;;
2784;SDS011;57944;48.722;9.316;2023-09-12T00:14:59;35.03;;;19.83;;
2784;SDS011;57944;48.722;9.316;2023-09-12T00:17:33;21.60;;;17.90;;
2784;SDS011;57944;48.722;9.316;2023-09-12T00:20:04;22.70;;;17.60;;
2784;SDS011;57944;48.722;9.316;2023-09-12T00:22:36;23.83;;;15.50;;
2784;SDS011;57944;48.722;9.316;2023-09-12T00:25:07;24.80;;;18.27;;
2784;SDS011;57944;48.722;9.316;2023-09-12T00:27:38;35.80;;;17.13;;
2784;SDS011;57944;48.722;9.316;2023-09-12T00:30:09;23.47;;;17.10;;
2784;SDS011;57944;48.722;9.316;2023-09-12T00:32:43;28.07;;;17.60;;
2784;SDS011;57944;48.722;9.316;2023-09-12T00:35:15;22.67;;;16.70;;
2784;SDS011;57944;48.722;9.316;2023-09-12T00:37:45;22.10;;;17.63;;
2784;SDS011;57944;48.722;9.316;2023-09-12T00:40:16;26.73;;;17.23;;
2784;SDS011;57944;48.722;9.316;2023-09-12T00:42:47;25.13;;;19.67;;
2784;SDS011;57944;48.722;9.316;2023-09-12T00:45:17;26.43;;;16.67;;
2784;SDS011;57944;48.722;9.316;2023-09-12T00:47:50;23.60;;;18.03;;
2784;SDS011;57944;48.722;9.316;2023-09-12T00:50:22;26.83;;;17.83;;
2784;SDS011;57944;48.722;9.316;2023-09-12T00:52:54;30.80;;;18.60;;
2784;SDS011;57944;48.722;9.316;2023-09-12T00:55:24;26.33;;;17.43;;
2784;SDS011;57944;48.722;9.316;2023-09-12T00:57:55;25.40;;;16.60;;
2784;SDS011;57944;48.722;9.316;2023-09-12T01:00:26;24.60;;;18.20;;
2784;SDS011;57944;48.722;9.316;2023-09-12T01:03:00;26.67;;;19.03;;
2784;SDS011;57944;48.722;9.316;2023-09-12T01:05:32;19.70;;;16.43;;
2784;SDS011;57944;48.722;9.316;2023-09-12T01:08:03;32.80;;;19.07;;
2784;SDS011;57944;48.722;9.316;2023-09-12T01:10:34;25.30;;;18.23;;
2784;SDS011;57944;48.722;9.316;2023-09-12T01:13:05;26.90;;;18.30;;
2784;SDS011;57944;48.722;9.316;2023-09-12T01:15:36;24.00;;;18.43;;
2784;SDS011;57944;48.722;9.316;2023-09-12T01:18:09;21.13;;;17.13;;
2784;SDS011;57944;48.722;9.316;2023-09-12T01:20:41;27.43;;;15.77;;
2784;SDS011;57944;48.722;9.316;2023-09-12T01:23:33;26.20;;;18.20;;
2784;SDS011;57944;48.722;9.316;2023-09-12T01:26:29;26.47;;;18.13;;
2784;SDS011;57944;48.722;9.316;2023-09-12T01:29:12;30.47;;;17.27;;
2784;SDS011;57944;48.722;9.316;2023-09-12T01:31:45;30.70;;;18.83;;
2784;SDS011;57944;48.722;9.316;2023-09-12T01:34:17;25.47;;;18.00;;
2784;SDS011;57944;48.722;9.316;2023-09-12T01:36:47;30.50;;;19.33;;
2784;SDS011;57944;48.722;9.316;2023-09-12T01:39:18;22.33;;;16.13;;
2784;SDS011;57944;48.722;9.316;2023-09-12T01:41:49;27.10;;;19.10;;
2784;SDS011;57944;48.722;9.316;2023-09-12T01:44:27;34.03;;;19.90;;
2784;SDS011;57944;48.722;9.316;2023-09-12T01:47:00;28.60;;;16.83;;
2784;SDS011;57944;48.722;9.316;2023-09-12T01:49:34;21.23;;;15.73;;
2784;SDS011;57944;48.722;9.316;2023-09-12T01:52:09;28.90;;;18.57;;
2784;SDS011;57944;48.722;9.316;2023-09-12T01:54:40;30.17;;;20.03;;
2784;SDS011;57944;48.722;9.316;2023-09-12T01:57:11;27.23;;;20.30;;
2784;SDS011;57944;48.722;9.316;2023-09-12T01:59:45;28.33;;;18.90;;
2784;SDS011;57944;48.722;9.316;2023-09-12T02:02:17;24.63;;;18.03;;
2784;SDS011;57944;48.722;9.316;2023-09-12T02:04:51;27.93;;;18.93;;
2784;SDS011;57944;48.722;9.316;2023-09-12T02:07:27;31.73;;;19.27;;
2784;SDS011;57944;48.722;9.316;2023-09-12T02:10:02;23.40;;;17.23;;
2784;SDS011;57944;48.722;9.316;2023-09-12T02:12:33;25.37;;;16.67;;
2784;SDS011;57944;48.722;9.316;2023-09-12T02:15:08;22.00;;;18.60;;
2784;SDS011;57944;48.722;9.316;2023-09-12T02:17:39;25.40;;;18.10;;
2784;SDS011;57944;48.722;9.316;2023-09-12T02:20:10;24.13;;;18.97;;
2784;SDS011;57944;48.722;9.316;2023-09-12T02:22:41;25.33;;;17.20;;
2784;SDS011;57944;48.722;9.316;2023-09-12T02:25:11;25.87;;;17.87;;
2784;SDS011;57944;48.722;9.316;2023-09-12T02:27:42;28.40;;;18.07;;
2784;SDS011;57944;48.722;9.316;2023-09-12T02:30:16;28.97;;;20.00;;
2784;SDS011;57944;48.722;9.316;2023-09-12T02:32:47;25.80;;;17.57;;
2784;SDS011;57944;48.722;9.316;2023-09-12T02:35:17;29.60;;;20.87;;
2784;SDS011;57944;48.722;9.316;2023-09-12T02:37:48;25.83;;;19.90;;
2784;SDS011;57944;48.722;9.316;2023-09-12T02:40:19;24.43;;;17.87;;
2784;SDS011;57944;48.722;9.316;2023-09-12T02:42:49;26.27;;;19.43;;
2784;SDS011;57944;48.722;9.316;2023-09-12T02:45:22;31.17;;;19.37;;
2784;SDS011;57944;48.722;9.316;2023-09-12T02:47:53;28.70;;;18.90;;
2784;SDS011;57944;48.722;9.316;2023-09-12T02:50:24;25.40;;;18.57;;
2784;SDS011;57944;48.722;9.316;2023-09-12T02:52:54;28.47;;;18.07;;
2784;SDS011;57944;48.722;9.316;2023-09-12T02:55:25;29.43;;;21.17;;
2784;SDS011;57944;48.722;9.316;2023-09-12T02:57:56;27.80;;;18.17;;
2784;SDS011;57944;48.722;9.316;2023-09-12T03:00:29;25.63;;;18.90;;
2784;SDS011;57944;48.722;9.316;2023-09-12T03:03:00;25.60;;;19.50;;
2784;SDS011;57944;48.722;9.316;2023-09-12T03:05:30;22.53;;;17.60;;
2784;SDS011;57944;48.722;9.316;2023-09-12T03:08:01;24.77;;;17.40;;
2784;SDS011;57944;48.722;9.316;2023-09-12T03:10:32;25.90;;;17.27;;
2784;SDS011;57944;48.722;9.316;2023-09-12T03:13:03;26.93;;;18.47;;
2784;SDS011;57944;48.722;9.316;2023-09-12T03:15:39;29.73;;;18.10;;
2784;SDS011;57944;48.722;9.316;2023-09-12T03:18:10;30.50;;;18.43;;
2784;SDS011;57944;48.722;9.316;2023-09-12T03:20:40;27.67;;;18.77;;
2784;SDS011;57944;48.722;9.316;2023-09-12T03:23:11;26.70;;;18.07;;
2784;SDS011;57944;48.722;9.316;2023-09-12T03:25:42;26.03;;;17.27;;
2784;SDS011;57944;48.722;9.316;2023-09-12T03:28:13;34.37;;;18.40;;
2784;SDS011;57944;48.722;9.316;2023-09-12T03:30:46;22.60;;;17.50;;
2784;SDS011;57944;48.722;9.316;2023-09-12T03:33:17;23.47;;;17.70;;
2784;SDS011;57944;48.722;9.316;2023-09-12T03:35:48;24.13;;;18.37;;
2784;SDS011;57944;48.722;9.316;2023-09-12T03:38:19;25.20;;;19.40;;
2784;SDS011;57944;48.722;9.316;2023-09-12T03:40:49;24.53;;;17.73;;
2784;SDS011;57944;48.722;9.316;2023-09-12T03:43:20;24.60;;;19.07;;
2784;SDS011;57944;48.722;9.316;2023-09-12T03:45:54;29.00;;;18.80;;
2784;SDS011;57944;48.722;9.316;2023-09-12T03:48:24;25.87;;;17.40;;
2784;SDS011;57944;48.722;9.316;2023-09-12T03:50:57;27.17;;;18.93;;
2784;SDS011;57944;48.722;9.316;2023-09-12T03:53:30;25.33;;;20.67;;
2784;SDS011;57944;48.722;9.316;2023-09-12T03:56:01;27.60;;;18.07;;
2784;SDS011;57944;48.722;9.316;2023-09-12T03:58:31;25.70;;;18.90;;
2784;SDS011;57944;48.722;9.316;2023-09-12T04:01:04;27.10;;;18.87;;
2784;SDS011;57944;48.722;9.316;2023-09-12T04:03:35;25.03;;;18.90;;
2784;SDS011;57944;48.722;9.316;2023-09-12T04:06:06;29.50;;;19.10;;
2784;SDS011;57944;48.722;9.316;2023-09-12T04:08:37;28.87;;;20.30;;
2784;SDS011;57944;48.722;9.316;2023-09-12T04:11:08;27.50;;;18.90;;
2784;SDS011;57944;48.722;9.316;2023-09-12T04:13:39;23.73;;;18.53;;
2784;SDS011;57944;48.722;9.316;2023-09-12T04:16:13;29.70;;;18.80;;
2784;SDS011;57944;48.722;9.316;2023-09-12T04:18:44;23.20;;;17.97;;
2784;SDS011;57944;48.722;9.316;2023-09-12T04:21:15;30.27;;;19.20;;
2784;SDS011;57944;48.722;9.316;2023-09-12T04:23:45;27.50;;;20.40;;
2784;SDS011;57944;48.722;9.316;2023-09-12T04:26:17;29.57;;;19.03;;
2784;SDS011;57944;48.722;9.316;2023-09-12T04:28:48;28.90;;;19.77;;
2784;SDS011;57944;48.722;9.316;2023-09-12T04:31:21;33.70;;;22.70;;
2784;SDS011;57944;48.722;9.316;2023-09-12T04:33:52;26.47;;;20.70;;
2784;SDS011;57944;48.722;9.316;2023-09-12T04:36:23;32.70;;;20.87;;
2784;SDS011;57944;48.722;9.316;2023-09-12T04:38:54;25.63;;;18.80;;
2784;SDS011;57944;48.722;9.316;2023-09-12T04:41:25;26.60;;;19.90;;
2784;SDS011;57944;48.722;9.316;2023-09-12T04:43:56;29.53;;;19.67;;
2784;SDS011;57944;48.722;9.316;2023-09-12T04:46:31;24.23;;;18.17;;
2784;SDS011;57944;48.722;9.316;2023-09-12T04:49:04;26.70;;;20.63;;
2784;SDS011;57944;48.722;9.316;2023-09-12T04:51:34;23.73;;;18.23;;
2784;SDS011;57944;48.722;9.316;2023-09-12T04:54:05;32.00;;;20.67;;
2784;SDS011;57944;48.722;9.316;2023-09-12T04:56:36;31.50;;;21.13;;
2784;SDS011;57944;48.722;9.316;2023-09-12T04:59:06;31.50;;;18.00;;
2784;SDS011;57944;48.722;9.316;2023-09-12T05:01:39;34.63;;;19.40;;
2784;SDS011;57944;48.722;9.316;2023-09-12T05:04:10;30.90;;;18.33;;
2784;SDS011;57944;48.722;9.316;2023-09-12T05:06:41;24.60;;;17.33;;
2784;SDS011;57944;48.722;9.316;2023-09-12T05:09:12;24.50;;;18.87;;
2784;SDS011;57944;48.722;9.316;2023-09-12T05:11:43;27.03;;;20.10;;
2784;SDS011;57944;48.722;9.316;2023-09-12T05:14:14;27.30;;;18.20;;
2784;SDS011;57944;48.722;9.316;2023-09-12T05:16:48;22.43;;;18.40;;
2784;SDS011;57944;48.722;9.316;2023-09-12T05:19:19;24.10;;;18.07;;
2784;SDS011;57944;48.722;9.316;2023-09-12T05:21:52;20.87;;;15.73;;
2784;SDS011;57944;48.722;9.316;2023-09-12T05:24:22;25.87;;;17.20;;
2784;SDS011;57944;48.722;9.316;2023-09-12T05:26:53;25.23;;;17.20;;
2784;SDS011;57944;48.722;9.316;2023-09-12T05:29:23;22.90;;;17.93;;
2784;SDS011;57944;48.722;9.316;2023-09-12T05:31:57;29.03;;;16.70;;
2784;SDS011;57944;48.722;9.316;2023-09-12T05:34:27;24.93;;;16.70;;
2784;SDS011;57944;48.722;9.316;2023-09-12T05:36:58;23.50;;;16.97;;
2784;SDS011;57944;48.722;9.316;2023-09-12T05:39:29;26.97;;;16.43;;
2784;SDS011;57944;48.722;9.316;2023-09-12T05:42:00;27.30;;;16.37;;
2784;SDS011;57944;48.722;9.316;2023-09-12T05:44:32;20.67;;;16.23;;
2784;SDS011;57944;48.722;9.316;2023-09-12T05:47:06;24.53;;;16.33;;
2784;SDS011;57944;48.722;9.316;2023-09-12T05:49:36;24.13;;;16.10;;
2784;SDS011;57944;48.722;9.316;2023-09-12T05:52:07;24.63;;;15.60;;
2784;SDS011;57944;48.722;9.316;2023-09-12T05:54:37;18.00;;;15.57;;
2784;SDS011;57944;48.722;9.316;2023-09-12T05:57:09;22.90;;;14.90;;
2784;SDS011;57944;48.722;9.316;2023-09-12T05:59:40;17.97;;;15.10;;
2784;SDS011;57944;48.722;9.316;2023-09-12T06:02:14;21.63;;;15.87;;
2784;SDS011;57944;48.722;9.316;2023-09-12T06:04:44;20.00;;;15.43;;
2784;SDS011;57944;48.722;9.316;2023-09-12T06:07:15;24.80;;;13.80;;
2784;SDS011;57944;48.722;9.316;2023-09-12T06:09:46;18.57;;;14.37;;
2784;SDS011;57944;48.722;9.316;2023-09-12T06:12:16;22.47;;;15.40;;
2784;SDS011;57944;48.722;9.316;2023-09-12T06:14:47;15.33;;;12.73;;
2784;SDS011;57944;48.722;9.316;2023-09-12T06:17:20;18.57;;;14.07;;
2784;SDS011;57944;48.722;9.316;2023-09-12T06:19:50;24.50;;;14.17;;
2784;SDS011;57944;48.722;9.316;2023-09-12T06:22:21;19.47;;;14.57;;
2784;SDS011;57944;48.722;9.316;2023-09-12T06:24:52;17.17;;;14.00;;
2784;SDS011;57944;48.722;9.316;2023-09-12T06:27:22;19.80;;;14.87;;
2784;SDS011;57944;48.722;9.316;2023-09-12T06:29:53;22.50;;;13.50;;
2784;SDS011;57944;48.722;9.316;2023-09-12T06:32:26;22.73;;;13.07;;
2784;SDS011;57944;48.722;9.316;2023-09-12T06:34:57;22.10;;;13.60;;
2784;SDS011;57944;48.722;9.316;2023-09-12T06:37:27;20.00;;;12.90;;
2784;SDS011;57944;48.722;9.316;2023-09-12T06:39:58;20.93;;;14.80;;
2784;SDS011;57944;48.722;9.316;2023-09-12T06:42:30;23.43;;;14.20;;
2784;SDS011;57944;48.722;9.316;2023-09-12T06:45:00;16.73;;;12.90;;
2784;SDS011;57944;48.722;9.316;2023-09-12T06:47:33;17.87;;;12.53;;
2784;SDS011;57944;48.722;9.316;2023-09-12T06:50:04;16.80;;;13.27;;
2784;SDS011;57944;48.722;9.316;2023-09-12T06:52:40;21.30;;;14.10;;
2784;SDS011;57944;48.722;9.316;2023-09-12T06:55:11;16.87;;;13.50;;
2784;SDS011;57944;48.722;9.316;2023-09-12T06:57:41;20.80;;;13.27;;
2784;SDS011;57944;48.722;9.316;2023-09-12T07:00:13;24.57;;;15.03;;
2784;SDS011;57944;48.722;9.316;2023-09-12T07:02:48;16.93;;;12.23;;
2784;SDS011;57944;48.722;9.316;2023-09-12T07:05:18;16.13;;;13.73;;
2784;SDS011;57944;48.722;9.316;2023-09-12T07:07:49;25.20;;;13.97;;
2784;SDS011;57944;48.722;9.316;2023-09-12T07:10:20;20.30;;;14.20;;
2784;SDS011;57944;48.722;9.316;2023-09-12T07:12:52;22.57;;;13.50;;
2784;SDS011;57944;48.722;9.316;2023-09-12T07:15:22;20.50;;;13.27;;
2784;SDS011;57944;48.722;9.316;2023-09-12T07:17:56;15.93;;;12.63;;
2784;SDS011;57944;48.722;9.316;2023-09-12T07:20:27;18.57;;;12.90;;
2784;SDS011;57944;48.722;9.316;2023-09-12T07:22:57;30.63;;;15.27;;
2784;SDS011;57944;48.722;9.316;2023-09-12T07:25:28;18.40;;;14.43;;
2784;SDS011;57944;48.722;9.316;2023-09-12T07:27:58;20.00;;;13.50;;
2784;SDS011;57944;48.722;9.316;2023-09-12T07:30:30;24.13;;;13.70;;
2784;SDS011;57944;48.722;9.316;2023-09-12T07:33:03;20.40;;;13.60;;
2784;SDS011;57944;48.722;9.316;2023-09-12T07:35:34;18.30;;;14.20;;
2784;SDS011;57944;48.722;9.316;2023-09-12T07:38:06;20.70;;;14.83;;
2784;SDS011;57944;48.722;9.316;2023-09-12T07:40:37;16.63;;;13.07;;
2784;SDS011;57944;48.722;9.316;2023-09-12T07:43:07;17.53;;;12.50;;
2784;SDS011;57944;48.722;9.316;2023-09-12T07:45:38;23.70;;;13.00;;
2784;SDS011;57944;48.722;9.316;2023-09-12T07:48:11;16.50;;;11.50;;
2784;SDS011;57944;48.722;9.316;2023-09-12T07:50:42;24.60;;;14.20;;
2784;SDS011;57944;48.722;9.316;2023-09-12T07:53:12;18.13;;;13.70;;
2784;SDS011;57944;48.722;9.316;2023-09-12T07:55:43;18.23;;;12.60;;
2784;SDS011;57944;48.722;9.316;2023-09-12T07:58:15;20.50;;;12.80;;
2784;SDS011;57944;48.722;9.316;2023-09-12T08:00:48;18.03;;;13.13;;
2784;SDS011;57944;48.722;9.316;2023-09-12T08:03:21;21.83;;;13.87;;
2784;SDS011;57944;48.722;9.316;2023-09-12T08:05:55;17.63;;;12.83;;
2784;SDS011;57944;48.722;9.316;2023-09-12T08:08:26;18.40;;;12.77;;
2784;SDS011;57944;48.722;9.316;2023-09-12T08:10:56;18.63;;;12.07;;
2784;SDS011;57944;48.722;9.316;2023-09-12T08:13:28;43.07;;;15.73;;
2784;SDS011;57944;48.722;9.316;2023-09-12T08:15:59;22.33;;;12.80;;
2784;SDS011;57944;48.722;9.316;2023-09-12T08:18:32;22.60;;;12.53;;
2784;SDS011;57944;48.722;9.316;2023-09-12T08:21:03;17.97;;;13.90;;
2784;SDS011;57944;48.722;9.316;2023-09-12T08:23:33;16.63;;;12.10;;
2784;SDS011;57944;48.722;9.316;2023-09-12T08:26:04;19.10;;;12.70;;
2784;SDS011;57944;48.722;9.316;2023-09-12T08:28:35;20.80;;;14.07;;
2784;SDS011;57944;48.722;9.316;2023-09-12T08:31:06;16.00;;;13.83;;
2784;SDS011;57944;48.722;9.316;2023-09-12T08:33:39;15.80;;;13.47;;
2784;SDS011;57944;48.722;9.316;2023-09-12T08:36:10;15.07;;;13.00;;
2784;SDS011;57944;48.722;9.316;2023-09-12T08:38:41;19.60;;;13.33;;
2784;SDS011;57944;48.722;9.316;2023-09-12T08:41:11;17.37;;;12.30;;
2784;SDS011;57944;48.722;9.316;2023-09-12T08:43:42;15.00;;;12.57;;
2784;SDS011;57944;48.722;9.316;2023-09-12T08:46:13;16.00;;;13.10;;
2784;SDS011;57944;48.722;9.316;2023-09-12T08:48:48;18.93;;;11.53;;
2784;SDS011;57944;48.722;9.316;2023-09-12T08:51:20;18.10;;;12.40;;
2784;SDS011;57944;48.722;9.316;2023-09-12T08:53:52;17.27;;;13.10;;
2784;SDS011;57944;48.722;9.316;2023-09-12T08:56:22;21.30;;;13.07;;
2784;SDS011;57944;48.722;9.316;2023-09-12T08:58:53;16.80;;;14.43;;
2784;SDS011;57944;48.722;9.316;2023-09-12T09:01:25;14.67;;;12.80;;
2784;SDS011;57944;48.722;9.316;2023-09-12T09:03:59;14.17;;;12.67;;
2784;SDS011;57944;48.722;9.316;2023-09-12T09:06:32;17.23;;;13.13;;
2784;SDS011;57944;48.722;9.316;2023-09-12T09:09:06;26.17;;;12.90;;
2784;SDS011;57944;48.722;9.316;2023-09-12T09:11:36;14.33;;;12.70;;
2784;SDS011;57944;48.722;9.316;2023-09-12T09:14:07;20.30;;;13.43;;
2784;SDS011;57944;48.722;9.316;2023-09-12T09:16:38;15.80;;;12.77;;
2784;SDS011;57944;48.722;9.316;2023-09-12T09:19:11;18.90;;;13.97;;
2784;SDS011;57944;48.722;9.316;2023-09-12T09:21:43;17.80;;;13.90;;
2784;SDS011;57944;48.722;9.316;2023-09-12T09:24:14;19.93;;;13.03;;
2784;SDS011;57944;48.722;9.316;2023-09-12T09:26:49;18.30;;;13.43;;
2784;SDS011;57944;48.722;9.316;2023-09-12T09:29:25;22.70;;;12.20;;
2784;SDS011;57944;48.722;9.316;2023-09-12T09:31:58;14.80;;;12.20;;
2784;SDS011;57944;48.722;9.316;2023-09-12T09:34:34;15.37;;;12.40;;
2784;SDS011;57944;48.722;9.316;2023-09-12T09:37:09;15.10;;;10.30;;
2784;SDS011;57944;48.722;9.316;2023-09-12T09:39:41;13.90;;;12.50;;
2784;SDS011;57944;48.722;9.316;2023-09-12T09:42:14;20.30;;;11.47;;
2784;SDS011;57944;48.722;9.316;2023-09-12T09:44:45;17.90;;;11.60;;
2784;SDS011;57944;48.722;9.316;2023-09-12T09:47:17;13.63;;;11.47;;
2784;SDS011;57944;48.722;9.316;2023-09-12T09:49:51;17.57;;;11.67;;
2784;SDS011;57944;48.722;9.316;2023-09-12T09:52:24;14.27;;;12.77;;
2784;SDS011;57944;48.722;9.316;2023-09-12T09:54:56;14.20;;;11.70;;
2784;SDS011;57944;48.722;9.316;2023-09-12T09:57:27;16.20;;;11.20;;
2784;SDS011;57944;48.722;9.316;2023-09-12T09:59:58;18.60;;;12.77;;
2784;SDS011;57944;48.722;9.316;2023-09-12T10:02:34;15.03;;;12.73;;
2784;SDS011;57944;48.722;9.316;2023-09-12T10:05:11;13.30;;;11.90;;
2784;SDS011;57944;48.722;9.316;2023-09-12T10:07:45;20.10;;;12.60;;
2784;SDS011;57944;48.722;9.316;2023-09-12T10:10:18;16.80;;;12.50;;
2784;SDS011;57944;48.722;9.316;2023-09-12T10:12:51;16.77;;;12.33;;
2784;SDS011;57944;48.722;9.316;2023-09-12T10:15:26;12.37;;;11.27;;
2784;SDS011;57944;48.722;9.316;2023-09-12T10:18:00;14.57;;;13.17;;
2784;SDS011;57944;48.722;9.316;2023-09-12T10:20:45;14.40;;;11.37;;
2784;SDS011;57944;48.722;9.316;2023-09-12T10:23:22;19.10;;;12.70;;
2784;SDS011;57944;48.722;9.316;2023-09-12T10:25:56;16.87;;;12.00;;
2784;SDS011;57944;48.722;9.316;2023-09-12T10:28:28;13.50;;;12.30;;
2784;SDS011;57944;48.722;9.316;2023-09-12T10:30:59;14.97;;;13.10;;
2784;SDS011;57944;48.722;9.316;2023-09-12T10:33:33;15.20;;;13.47;;
2784;SDS011;57944;48.722;9.316;2023-09-12T10:36:06;16.77;;;13.10;;
2784;SDS011;57944;48.722;9.316;2023-09-12T10:38:40;13.17;;;11.87;;
2784;SDS011;57944;48.722;9.316;2023-09-12T10:41:13;15.90;;;12.13;;
2784;SDS011;57944;48.722;9.316;2023-09-12T10:43:44;13.53;;;12.23;;
2784;SDS011;57944;48.722;9.316;2023-09-12T10:46:18;13.13;;;11.87;;
2784;SDS011;57944;48.722;9.316;2023-09-12T10:48:50;17.30;;;11.60;;
2784;SDS011;57944;48.722;9.316;2023-09-12T10:51:23;16.60;;;11.93;;
2784;SDS011;57944;48.722;9.316;2023-09-12T10:53:54;14.37;;;11.67;;
2784;SDS011;57944;48.722;9.316;2023-09-12T10:56:25;12.63;;;11.33;;
2784;SDS011;57944;48.722;9.316;2023-09-12T10:59:11;17.60;;;12.03;;
2784;SDS011;57944;48.722;9.316;2023-09-12T11:01:43;15.17;;;11.90;;
2784;SDS011;57944;48.722;9.316;2023-09-12T11:12:49;16.53;;;11.20;;
2784;SDS011;57944;48.722;9.316;2023-09-12T11:15:22;14.63;;;11.70;;
2784;SDS011;57944;48.722;9.316;2023-09-12T11:18:00;15.83;;;10.90;;
2784;SDS011;57944;48.722;9.316;2023-09-12T11:23:22;20.50;;;11.07;;
2784;SDS011;57944;48.722;9.316;2023-09-12T11:26:03;16.57;;;11.70;;
2784;SDS011;57944;48.722;9.316;2023-09-12T11:28:37;16.40;;;11.57;;
2784;SDS011;57944;48.722;9.316;2023-09-12T11:31:11;21.60;;;12.07;;
2784;SDS011;57944;48.722;9.316;2023-09-12T11:33:53;14.33;;;11.63;;
2784;SDS011;57944;48.722;9.316;2023-09-12T11:36:29;15.57;;;11.77;;
2784;SDS011;57944;48.722;9.316;2023-09-12T11:39:20;12.20;;;10.90;;
2784;SDS011;57944;48.722;9.316;2023-09-12T11:41:53;14.10;;;10.57;;
2784;SDS011;57944;48.722;9.316;2023-09-12T11:44:24;17.07;;;10.20;;
2784;SDS011;57944;48.722;9.316;2023-09-12T11:46:59;14.73;;;10.93;;
2784;SDS011;57944;48.722;9.316;2023-09-12T11:49:36;11.90;;;10.53;;
2784;SDS011;57944;48.722;9.316;2023-09-12T11:52:08;14.73;;;11.03;;
2784;SDS011;57944;48.722;9.316;2023-09-12T11:54:42;16.77;;;10.47;;
2784;SDS011;57944;48.722;9.316;2023-09-12T11:57:14;13.53;;;9.50;;
2784;SDS011;57944;48.722;9.316;2023-09-12T11:59:45;11.90;;;10.60;;
2784;SDS011;57944;48.722;9.316;2023-09-12T12:08:38;14.03;;;10.27;;
2784;SDS011;57944;48.722;9.316;2023-09-12T12:11:11;16.77;;;9.17;;
2784;SDS011;57944;48.722;9.316;2023-09-12T12:13:44;15.73;;;10.10;;
2784;SDS011;57944;48.722;9.316;2023-09-12T12:16:17;13.90;;;9.50;;
2784;SDS011;57944;48.722;9.316;2023-09-12T12:18:52;10.70;;;9.43;;
2784;SDS011;57944;48.722;9.316;2023-09-12T12:21:23;8.77;;;7.83;;
2784;SDS011;57944;48.722;9.316;2023-09-12T12:23:58;11.93;;;9.70;;
2784;SDS011;57944;48.722;9.316;2023-09-12T12:26:32;10.90;;;9.70;;
2784;SDS011;57944;48.722;9.316;2023-09-12T12:29:03;12.50;;;9.80;;
2784;SDS011;57944;48.722;9.316;2023-09-12T12:31:34;11.50;;;10.37;;
2784;SDS011;57944;48.722;9.316;2023-09-12T12:34:05;12.63;;;9.63;;
2784;SDS011;57944;48.722;9.316;2023-09-12T12:36:56;12.00;;;9.80;;
2784;SDS011;57944;48.722;9.316;2023-09-12T12:39:31;11.17;;;9.97;;
2784;SDS011;57944;48.722;9.316;2023-09-12T12:42:04;10.20;;;9.10;;
2784;SDS011;57944;48.722;9.316;2023-09-12T12:44:36;14.27;;;9.53;;
2784;SDS011;57944;48.722;9.316;2023-09-12T12:47:08;11.30;;;8.67;;
2784;SDS011;57944;48.722;9.316;2023-09-12T12:49:39;10.20;;;8.23;;
2784;SDS011;57944;48.722;9.316;2023-09-12T12:52:10;13.60;;;8.80;;
2784;SDS011;57944;48.722;9.316;2023-09-12T12:54:41;17.23;;;13.00;;
2784;SDS011;57944;48.722;9.316;2023-09-12T12:57:17;14.43;;;12.93;;
2784;SDS011;57944;48.722;9.316;2023-09-12T12:59:48;17.93;;;11.13;;
2784;SDS011;57944;48.722;9.316;2023-09-12T13:02:19;15.43;;;9.20;;
2784;SDS011;57944;48.722;9.316;2023-09-12T13:04:50;13.77;;;9.93;;
2784;SDS011;57944;48.722;9.316;2023-09-12T13:07:21;11.33;;;9.90;;
2784;SDS011;57944;48.722;9.316;2023-09-12T13:09:51;10.90;;;9.27;;
2784;SDS011;57944;48.722;9.316;2023-09-12T13:12:24;13.07;;;9.57;;
2784;SDS011;57944;48.722;9.316;2023-09-12T13:14:55;11.77;;;8.57;;
2784;SDS011;57944;48.722;9.316;2023-09-12T13:17:26;11.20;;;8.27;;
2784;SDS011;57944;48.722;9.316;2023-09-12T13:19:57;9.03;;;8.13;;
2784;SDS011;57944;48.722;9.316;2023-09-12T13:22:27;11.00;;;8.70;;
2784;SDS011;57944;48.722;9.316;2023-09-12T13:24:58;10.83;;;9.70;;
2784;SDS011;57944;48.722;9.316;2023-09-12T13:27:31;10.63;;;9.60;;
2784;SDS011;57944;48.722;9.316;2023-09-12T13:30:02;10.60;;;9.50;;
2784;SDS011;57944;48.722;9.316;2023-09-12T13:32:34;12.40;;;9.80;;
2784;SDS011;57944;48.722;9.316;2023-09-12T13:35:05;15.00;;;10.20;;
2784;SDS011;57944;48.722;9.316;2023-09-12T13:37:36;11.93;;;9.90;;
2784;SDS011;57944;48.722;9.316;2023-09-12T13:40:07;10.10;;;8.90;;
2784;SDS011;57944;48.722;9.316;2023-09-12T13:42:41;10.90;;;9.80;;
2784;SDS011;57944;48.722;9.316;2023-09-12T13:45:12;18.17;;;10.13;;
2784;SDS011;57944;48.722;9.316;2023-09-12T13:47:43;11.53;;;9.00;;
2784;SDS011;57944;48.722;9.316;2023-09-12T13:50:13;13.43;;;9.83;;
2784;SDS011;57944;48.722;9.316;2023-09-12T13:52:44;13.27;;;9.67;;
2784;SDS011;57944;48.722;9.316;2023-09-12T13:55:15;11.20;;;9.20;;
2784;SDS011;57944;48.722;9.316;2023-09-12T13:58:08;10.00;;;9.07;;
2784;SDS011;57944;48.722;9.316;2023-09-12T14:00:39;11.07;;;9.63;;
2784;SDS011;57944;48.722;9.316;2023-09-12T14:03:09;10.63;;;9.43;;
2784;SDS011;57944;48.722;9.316;2023-09-12T14:05:40;12.70;;;9.40;;
2784;SDS011;57944;48.722;9.316;2023-09-12T14:08:12;10.93;;;9.30;;
2784;SDS011;57944;48.722;9.316;2023-09-12T14:10:43;11.60;;;9.60;;
2784;SDS011;57944;48.722;9.316;2023-09-12T14:13:17;12.63;;;9.47;;
2784;SDS011;57944;48.722;9.316;2023-09-12T14:15:49;13.87;;;9.27;;
2784;SDS011;57944;48.722;9.316;2023-09-12T14:18:21;11.43;;;9.70;;
2784;SDS011;57944;48.722;9.316;2023-09-12T14:20:53;13.80;;;9.67;;
2784;SDS011;57944;48.722;9.316;2023-09-12T14:23:24;15.53;;;9.70;;
2784;SDS011;57944;48.722;9.316;2023-09-12T14:25:55;12.00;;;10.33;;
2784;SDS011;57944;48.722;9.316;2023-09-12T14:28:28;15.57;;;10.60;;
2784;SDS011;57944;48.722;9.316;2023-09-12T14:31:01;15.50;;;11.00;;
2784;SDS011;57944;48.722;9.316;2023-09-12T14:33:40;13.83;;;10.10;;
2784;SDS011;57944;48.722;9.316;2023-09-12T14:36:11;15.03;;;9.70;;
2784;SDS011;57944;48.722;9.316;2023-09-12T14:38:42;10.27;;;9.17;;
2784;SDS011;57944;48.722;9.316;2023-09-12T14:41:12;14.63;;;10.50;;
2784;SDS011;57944;48.722;9.316;2023-09-12T14:43:46;11.70;;;9.80;;
2784;SDS011;57944;48.722;9.316;2023-09-12T14:46:16;13.47;;;9.53;;
2784;SDS011;57944;48.722;9.316;2023-09-12T14:48:47;13.93;;;9.77;;
2784;SDS011;57944;48.722;9.316;2023-09-12T14:51:28;15.70;;;10.17;;
2784;SDS011;57944;48.722;9.316;2023-09-12T14:54:00;12.60;;;9.70;;
2784;SDS011;57944;48.722;9.316;2023-09-12T14:56:31;12.77;;;9.70;;
2784;SDS011;57944;48.722;9.316;2023-09-12T14:59:05;16.60;;;9.63;;
2784;SDS011;57944;48.722;9.316;2023-09-12T15:01:36;13.20;;;9.57;;
2784;SDS011;57944;48.722;9.316;2023-09-12T15:04:06;15.83;;;9.37;;
2784;SDS011;57944;48.722;9.316;2023-09-12T15:06:38;13.50;;;10.00;;
2784;SDS011;57944;48.722;9.316;2023-09-12T15:09:08;13.27;;;10.03;;
2784;SDS011;57944;48.722;9.316;2023-09-12T15:11:39;12.87;;;10.90;;
2784;SDS011;57944;48.722;9.316;2023-09-12T15:14:12;15.50;;;9.73;;
2784;SDS011;57944;48.722;9.316;2023-09-12T15:16:44;11.83;;;9.67;;
2784;SDS011;57944;48.722;9.316;2023-09-12T15:19:15;21.03;;;10.07;;
2784;SDS011;57944;48.722;9.316;2023-09-12T15:21:45;14.13;;;10.30;;
2784;SDS011;57944;48.722;9.316;2023-09-12T15:24:16;21.30;;;10.33;;